Portada
METAR-TAF:

METAR-TAF

Aeroports :

Aeroport de Brussel·les

Brussel·les, Bèlgica

latitud: 50-54N, longitud: 004-32E, altitud: 55 m

Observació

L'informe es va fer fa 27 minuts, a les 13:50 UTC
Vent 3 kt del Oest, variant entre Sud i Nord
Temperatura 20°C
Humitat 56%
Pressió 1019 hPa
Visibilitat 10 km o més
Núvols disperses a una alçada de 4000 ft

METAR: EBBR 161350Z 28003KT 190V350 9999 SCT040 20/11 Q1019 NOSIG

Hora: 16:17 (14:17 UTC)

Pronòstic

L'informe es va fer fa 3 hores i 14 minuts, a les 11:03 UTC
Pronòstic vàlid del 16 a les 12 UTC al 17 a les 18 UTC
Vent 5 kt del Nord-Oest
Visibilitat 10 km o més
Núvols disperses a una alçada de 3500 ft
Probabilitat 30% :
Temporalment
l' 17 a les 02 UTC al 17 a les 05 UTC
Visibilitat: 4500 m
boirina, Boira superficial

TAF: EBBR 161103Z 1612/1718 31005KT 9999 SCT035 PROB30 TEMPO 1702/1705 4500 BR MIFG

Observacions i pronòstics meteorològics de més de 4000 aeroports (METAR i TAF).

Les estacions disponibles són els punts grocs i vermells al mapa.

Posi el ratolí al punt desitjat per veure el nom de l'estació.

Feu clic per veure les observacions i els pronòstics meteorològics.

Per canviar el mapa: feu clic els botons verds amb una creu de color negre per apropar; al botó verd amb un guió per allunyar la imatge; o en les fletxes verdes per a mapes adjacents.


METAR-TAF: